Time;durP1;ratioP1;P1;durP2;ratioP2;P2;SDS_P1;SDS_P2;PMS_P1;PMS_P2;Temp;Humidity;BMP_temperature;BMP_pressure;BME280_temperature;BME280_humidity;BME280_pressure;Samples;Min_cycle;Max_cycle;Signal;HPM_P1;HPM_P2
2022/12/25 00:00:53;;;;;;;18.80;8.30;;;;;;;8.36;92.49;100635.00;5030928;28;20199;-68
2022/12/25 00:03:20;;;;;;;20.17;7.30;;;;;;;8.42;92.71;100636.09;5030175;28;20228;-66
2022/12/25 00:05:46;;;;;;;19.73;7.87;;;;;;;8.35;92.97;100618.28;5023064;28;20195;-69
2022/12/25 00:08:12;;;;;;;16.53;7.53;;;;;;;8.39;93.10;100627.16;5028651;28;20196;-66
2022/12/25 00:10:39;;;;;;;23.17;8.10;;;;;;;8.36;93.30;100619.19;5030137;28;20735;-66
2022/12/25 00:13:10;;;;;;;23.77;8.30;;;;;;;8.48;92.90;100609.84;5030997;28;20231;-65
2022/12/25 00:15:39;;;;;;;17.40;7.43;;;;;;;8.49;92.65;100605.47;5027689;28;20201;-66
2022/12/25 00:18:06;;;;;;;19.27;8.33;;;;;;;8.49;92.82;100610.75;5026083;28;20635;-66
2022/12/25 00:20:32;;;;;;;23.90;8.73;;;;;;;8.50;92.66;100607.25;5027831;28;20200;-68
2022/12/25 00:22:58;;;;;;;23.30;8.20;;;;;;;8.51;92.70;100603.75;5027079;28;20212;-67
2022/12/25 00:25:25;;;;;;;23.43;8.23;;;;;;;8.46;92.78;100610.66;5030563;28;20233;-67
2022/12/25 00:27:51;;;;;;;16.37;7.13;;;;;;;8.43;93.06;100613.22;5029371;28;20242;-66
2022/12/25 00:30:17;;;;;;;22.33;8.50;;;;;;;8.34;92.70;100612.97;5031725;28;20207;-66
2022/12/25 00:32:44;;;;;;;14.80;7.73;;;;;;;8.29;93.02;100610.19;5032285;28;20281;-66
2022/12/25 00:35:10;;;;;;;18.00;7.90;;;;;;;8.27;93.07;100608.34;5030623;28;20194;-66
2022/12/25 00:37:36;;;;;;;19.53;7.77;;;;;;;8.26;93.32;100612.75;5030286;28;20216;-68
2022/12/25 00:40:03;;;;;;;17.03;7.60;;;;;;;8.29;93.64;100612.81;5028616;28;20560;-66
2022/12/25 00:42:29;;;;;;;15.70;7.43;;;;;;;8.27;93.40;100616.28;5030390;28;20247;-68
2022/12/25 00:44:56;;;;;;;20.97;7.67;;;;;;;8.54;92.44;100616.13;5013645;28;20238;-67
2022/12/25 00:47:22;;;;;;;20.33;8.20;;;;;;;8.40;92.64;100611.38;5028263;28;20817;-66
2022/12/25 00:49:48;;;;;;;17.00;7.73;;;;;;;8.51;92.61;100608.13;5022167;28;20205;-67
2022/12/25 00:52:15;;;;;;;24.53;7.70;;;;;;;8.46;92.28;100615.94;5024451;28;20730;-66
2022/12/25 00:54:41;;;;;;;18.73;8.37;;;;;;;8.36;92.57;100617.44;5026279;28;20304;-66
2022/12/25 00:57:07;;;;;;;23.37;9.37;;;;;;;8.29;92.73;100604.00;5027536;28;20275;-66
2022/12/25 00:59:34;;;;;;;15.40;8.40;;;;;;;8.13;92.87;100592.19;5028957;28;20694;-66
2022/12/25 01:02:22;;;;;;;21.80;9.33;;;;;;;8.06;93.28;100595.50;5029432;28;20223;-68
2022/12/25 01:04:48;;;;;;;17.27;8.40;;;;;;;7.97;93.44;100598.75;5024159;28;20199;-67
2022/12/25 01:07:15;;;;;;;21.20;9.23;;;;;;;7.90;93.77;100603.84;5029502;28;20795;-66
2022/12/25 01:12:29;;;;;;;26.43;10.33;;;;;;;7.75;94.03;100614.88;5021510;28;20275;-66
2022/12/25 01:14:55;;;;;;;24.00;9.87;;;;;;;7.69;94.38;100626.13;5024553;28;20281;-68
2022/12/25 01:17:22;;;;;;;20.47;9.10;;;;;;;7.78;94.56;100620.22;5026869;28;20346;-67
2022/12/25 01:19:48;;;;;;;18.97;9.37;;;;;;;7.80;94.66;100626.44;5029853;28;20259;-69
2022/12/25 01:22:15;;;;;;;19.63;8.60;;;;;;;7.81;94.74;100634.38;5027639;28;20219;-67
2022/12/25 01:24:43;;;;;;;20.93;9.40;;;;;;;7.81;95.03;100637.00;5027408;28;20197;-69
2022/12/25 01:27:10;;;;;;;22.43;9.93;;;;;;;7.83;95.30;100618.59;5029357;28;20739;-66
2022/12/25 01:29:37;;;;;;;21.53;9.63;;;;;;;7.81;95.14;100594.81;5027234;28;20637;-69
2022/12/25 01:32:04;;;;;;;22.10;9.63;;;;;;;7.84;95.47;100608.09;5029094;28;20218;-67
2022/12/25 01:34:30;;;;;;;26.43;10.17;;;;;;;8.10;94.94;100615.84;5026602;28;20288;-68
2022/12/25 01:36:56;;;;;;;27.67;10.03;;;;;;;8.10;95.13;100611.47;5029201;28;20660;-66
2022/12/25 01:39:23;;;;;;;26.30;9.13;;;;;;;8.16;94.67;100623.91;5028578;28;20584;-66
2022/12/25 01:41:49;;;;;;;26.97;9.57;;;;;;;8.03;94.66;100620.06;5029785;28;20293;-66
2022/12/25 01:44:18;;;;;;;25.10;8.93;;;;;;;8.09;94.87;100609.66;5026016;28;20220;-66
2022/12/25 01:46:45;;;;;;;20.17;9.00;;;;;;;8.13;94.37;100608.00;5008596;28;20229;-69
2022/12/25 01:49:24;;;;;;;24.07;9.33;;;;;;;8.01;94.71;100605.94;5025048;28;20738;-66
2022/12/25 01:51:59;;;;;;;24.40;9.50;;;;;;;8.06;94.78;100616.59;5025264;28;20604;-66
2022/12/25 01:54:57;;;;;;;22.60;9.00;;;;;;;8.03;94.90;100614.78;5027359;28;20274;-67
2022/12/25 01:57:28;;;;;;;18.00;8.67;;;;;;;7.91;94.97;100600.34;5011307;28;20238;-66
2022/12/25 01:59:57;;;;;;;20.13;8.37;;;;;;;7.90;95.49;100590.66;5029157;28;20210;-66
2022/12/25 02:02:24;;;;;;;19.93;9.30;;;;;;;8.09;94.98;100614.06;5027135;28;20224;-66
2022/12/25 02:05:00;;;;;;;32.53;9.63;;;;;;;8.28;94.23;100618.94;5028050;28;20372;-66
2022/12/25 02:07:28;;;;;;;23.20;8.07;;;;;;;8.30;93.40;100617.25;5024012;28;20675;-67
2022/12/25 02:09:54;;;;;;;23.57;8.47;;;;;;;8.24;93.67;100614.44;5028528;28;20212;-66
2022/12/25 02:12:26;;;;;;;27.30;9.10;;;;;;;8.20;93.69;100596.75;5027863;28;20234;-68
2022/12/25 02:14:57;;;;;;;20.17;8.77;;;;;;;8.20;94.10;100602.03;5027250;28;20204;-67
2022/12/25 02:17:51;;;;;;;27.53;8.87;;;;;;;8.32;93.46;100598.81;5025230;28;20220;-68
2022/12/25 02:20:41;;;;;;;22.53;8.47;;;;;;;8.24;93.68;100590.69;5026270;28;20242;-68
2022/12/25 02:23:29;;;;;;;21.37;8.60;;;;;;;8.29;93.26;100594.34;5024956;28;20707;-67
2022/12/25 02:26:15;;;;;;;20.03;8.40;;;;;;;8.26;93.23;100591.63;5021953;28;20204;-66
2022/12/25 02:29:00;;;;;;;25.93;9.00;;;;;;;8.23;93.18;100591.56;5024328;28;20200;-69
2022/12/25 02:31:51;;;;;;;23.27;9.10;;;;;;;8.19;93.34;100587.06;5027300;28;20663;-67
2022/12/25 02:34:33;;;;;;;27.47;8.53;;;;;;;8.15;93.63;100587.84;5024478;28;20242;-66
2022/12/25 02:37:22;;;;;;;32.93;9.30;;;;;;;8.15;93.66;100586.09;5028799;28;20207;-66
2022/12/25 02:39:58;;;;;;;26.40;9.13;;;;;;;8.10;93.67;100584.19;5026800;28;20205;-66
2022/12/25 03:08:17;;;;;;;25.30;8.67;;;;;;;8.18;94.00;100577.34;5026711;28;20202;-66
2022/12/25 03:13:37;;;;;;;23.93;8.77;;;;;;;8.16;94.00;100590.50;5051839;23;20236;-71
2022/12/25 03:18:49;;;;;;;23.83;8.67;;;;;;;8.18;93.92;100588.81;5047376;28;20640;-70
2022/12/25 03:26:56;;;;;;;20.93;8.30;;;;;;;8.18;93.85;100586.16;5045977;28;20208;-70
2022/12/25 03:32:29;;;;;;;26.77;9.03;;;;;;;8.39;92.87;100587.59;5034026;28;20202;-71
2022/12/25 03:35:22;;;;;;;23.43;8.80;;;;;;;8.33;92.57;100583.06;5043485;28;20199;-71
2022/12/25 04:37:55;;;;;;;22.27;10.23;;;;;;;8.43;92.72;100557.81;5043480;28;20318;-69
2022/12/25 04:40:21;;;;;;;26.67;10.00;;;;;;;8.27;92.55;100551.19;5048282;28;20306;-69
2022/12/25 04:42:51;;;;;;;29.37;10.57;;;;;;;8.25;93.27;100537.09;5047050;28;20219;-70
2022/12/25 04:45:18;;;;;;;20.07;9.53;;;;;;;8.24;93.23;100535.28;5047182;28;20196;-69
2022/12/25 04:47:44;;;;;;;26.13;10.63;;;;;;;8.20;93.40;100530.81;5048465;28;20302;-69
2022/12/25 04:50:11;;;;;;;22.07;9.73;;;;;;;8.22;93.72;100533.47;5047602;28;20206;-70
2022/12/25 04:52:39;;;;;;;26.83;10.93;;;;;;;8.43;92.82;100529.66;5047366;28;20663;-71
2022/12/25 04:55:07;;;;;;;29.00;10.70;;;;;;;8.32;92.44;100514.38;5044629;28;20554;-70
2022/12/25 04:57:34;;;;;;;19.50;10.43;;;;;;;8.38;92.80;100526.00;5047938;28;20240;-71
2022/12/25 05:00:00;;;;;;;23.70;10.17;;;;;;;8.31;92.14;100507.31;5043516;28;20195;-71
2022/12/25 05:02:27;;;;;;;21.50;10.93;;;;;;;8.36;92.56;100538.25;5049915;28;20212;-70
2022/12/25 05:04:53;;;;;;;28.00;10.90;;;;;;;8.27;92.89;100548.56;5043928;28;20199;-70
2022/12/25 05:07:20;;;;;;;21.23;9.93;;;;;;;8.21;93.34;100550.16;5048252;28;20198;-69
2022/12/25 05:09:46;;;;;;;21.37;10.23;;;;;;;8.12;93.68;100543.81;5044104;28;20639;-70
2022/12/25 05:12:12;;;;;;;21.33;10.40;;;;;;;8.09;94.22;100543.72;5047699;28;20199;-69
2022/12/25 05:14:40;;;;;;;22.67;10.17;;;;;;;8.09;94.16;100534.91;5045824;28;20233;-70
2022/12/25 05:17:06;;;;;;;20.80;10.07;;;;;;;8.21;94.28;100542.25;5042905;28;20250;-71
2022/12/25 05:19:33;;;;;;;22.57;10.23;;;;;;;8.19;94.10;100555.41;5047688;28;20202;-70
2022/12/25 05:22:00;;;;;;;18.93;10.13;;;;;;;8.14;94.25;100555.28;5045490;28;20203;-72
2022/12/25 05:24:26;;;;;;;21.73;10.43;;;;;;;8.18;94.62;100554.50;5047469;28;20195;-71
2022/12/25 05:26:53;;;;;;;23.33;10.50;;;;;;;8.13;94.24;100536.78;5044486;28;20655;-70
2022/12/25 05:29:19;;;;;;;21.93;10.90;;;;;;;8.14;94.15;100550.00;5048604;28;20193;-70
2022/12/25 05:31:46;;;;;;;24.90;11.17;;;;;;;8.16;94.14;100536.84;5045383;28;20351;-70
2022/12/25 05:34:12;;;;;;;21.67;10.40;;;;;;;8.22;94.15;100520.28;5039478;28;20750;-70
2022/12/25 05:36:38;;;;;;;22.23;10.57;;;;;;;8.23;93.82;100517.69;5048387;28;20927;-70
2022/12/25 05:39:05;;;;;;;22.77;11.13;;;;;;;8.25;93.24;100507.16;5049860;28;20261;-70
2022/12/25 05:41:31;;;;;;;24.57;10.30;;;;;;;8.39;93.14;100530.41;5045268;28;20267;-70
2022/12/25 05:44:00;;;;;;;21.57;10.37;;;;;;;8.35;93.33;100531.19;5045386;28;20229;-71
2022/12/25 05:46:26;;;;;;;20.90;10.20;;;;;;;8.33;93.27;100532.91;5047161;28;20220;-70
2022/12/25 05:48:53;;;;;;;24.10;10.27;;;;;;;8.21;93.02;100506.19;5049076;28;20201;-70
2022/12/25 05:51:19;;;;;;;30.70;11.27;;;;;;;8.32;93.43;100525.81;5047851;28;20201;-70
2022/12/25 05:53:45;;;;;;;20.23;10.87;;;;;;;8.33;93.42;100526.72;5048243;28;20250;-70
2022/12/25 05:56:12;;;;;;;20.97;9.90;;;;;;;8.32;93.32;100522.28;5045053;28;20208;-70
2022/12/25 05:58:39;;;;;;;18.50;9.60;;;;;;;8.34;93.04;100526.78;5040187;28;20221;-70
2022/12/25 06:01:14;;;;;;;20.77;10.63;;;;;;;8.28;93.27;100512.53;5042332;28;20628;-71
2022/12/25 06:03:40;;;;;;;23.50;10.27;;;;;;;8.36;93.00;100521.53;5044987;28;20255;-70
2022/12/25 06:06:07;;;;;;;21.33;10.27;;;;;;;8.32;93.31;100520.53;5042978;28;20203;-71
2022/12/25 06:08:34;;;;;;;23.40;10.10;;;;;;;8.33;93.34;100511.81;5045193;28;20195;-71
2022/12/25 06:11:06;;;;;;;17.53;10.10;;;;;;;8.54;92.39;100506.16;5043421;28;20209;-70
2022/12/25 06:13:33;;;;;;;20.50;10.10;;;;;;;8.51;92.47;100507.84;5041632;28;20263;-70
2022/12/25 06:16:04;;;;;;;22.43;10.03;;;;;;;8.54;92.34;100505.28;5041851;28;20198;-71
2022/12/25 06:18:34;;;;;;;23.17;9.77;;;;;;;8.39;92.39;100487.31;5047070;28;20640;-70
2022/12/25 06:21:05;;;;;;;21.90;9.70;;;;;;;8.48;92.50;100501.63;5043588;28;20200;-70
2022/12/25 06:23:31;;;;;;;22.23;10.43;;;;;;;8.49;92.31;100505.16;5039926;28;20302;-70
2022/12/25 06:25:58;;;;;;;20.17;9.87;;;;;;;8.41;92.82;100490.91;5042476;28;20199;-70
2022/12/25 06:28:24;;;;;;;19.67;9.73;;;;;;;8.37;92.72;100487.28;5048533;28;20192;-69
2022/12/25 06:30:51;;;;;;;18.43;9.83;;;;;;;8.36;92.86;100496.03;5045776;28;20612;-70
2022/12/25 06:33:17;;;;;;;21.97;10.23;;;;;;;8.43;93.10;100476.88;5045881;28;20274;-68
2022/12/25 06:35:43;;;;;;;19.50;10.47;;;;;;;8.40;93.29;100489.09;5045961;28;20202;-70
2022/12/25 06:38:10;;;;;;;21.90;10.23;;;;;;;8.41;93.23;100489.16;5047979;28;20236;-70
2022/12/25 06:40:36;;;;;;;17.13;9.63;;;;;;;8.42;93.32;100493.56;5048414;28;20256;-69
2022/12/25 06:43:02;;;;;;;22.10;9.80;;;;;;;8.39;93.40;100495.22;5045862;28;20285;-70
2022/12/25 06:45:29;;;;;;;15.57;9.93;;;;;;;8.33;93.57;100480.13;5046995;28;20222;-70
2022/12/25 06:47:55;;;;;;;19.10;9.90;;;;;;;8.35;93.39;100483.72;5046483;28;20200;-71
2022/12/25 06:50:21;;;;;;;23.47;10.33;;;;;;;8.38;93.46;100485.53;5044996;28;20199;-70
2022/12/25 06:52:48;;;;;;;18.57;10.60;;;;;;;8.37;93.65;100481.09;5040613;28;20261;-70
2022/12/25 06:55:14;;;;;;;22.03;10.77;;;;;;;8.39;93.34;100495.22;5044610;28;20582;-70
2022/12/25 06:57:40;;;;;;;21.47;10.47;;;;;;;8.36;93.51;100495.16;5046810;28;20214;-70
2022/12/25 07:00:07;;;;;;;18.63;9.67;;;;;;;8.36;93.63;100503.97;5044124;28;20196;-70
2022/12/25 07:02:37;;;;;;;21.83;9.93;;;;;;;8.42;93.31;100497.97;5042769;28;20631;-71
2022/12/25 07:05:04;;;;;;;19.57;9.67;;;;;;;8.46;93.52;100513.00;5046166;28;20221;-70
2022/12/25 07:07:30;;;;;;;23.80;11.27;;;;;;;8.49;93.12;100497.25;5046371;28;20286;-70
2022/12/25 07:09:56;;;;;;;18.73;11.33;;;;;;;8.56;93.21;100503.56;5041778;28;20231;-70
2022/12/25 07:12:23;;;;;;;20.13;10.57;;;;;;;8.59;92.97;100511.53;5040121;28;20215;-71
2022/12/25 07:14:52;;;;;;;22.77;10.40;;;;;;;8.55;93.01;100494.75;5048295;28;20196;-71
2022/12/25 07:17:20;;;;;;;15.97;9.67;;;;;;;8.64;92.81;100480.84;5044649;28;20219;-70
2022/12/25 07:19:47;;;;;;;17.63;9.90;;;;;;;8.82;91.64;100485.69;5044046;28;20304;-71
2022/12/25 07:22:14;;;;;;;16.03;9.23;;;;;;;8.66;91.87;100472.13;5045460;28;20210;-70
2022/12/25 07:24:41;;;;;;;16.73;9.97;;;;;;;8.80;91.27;100485.59;5046806;28;20289;-70
2022/12/25 07:27:08;;;;;;;19.17;9.93;;;;;;;8.67;91.84;100494.13;5044115;28;20205;-70
2022/12/25 07:29:34;;;;;;;15.87;9.40;;;;;;;8.59;92.05;100496.59;5043575;28;20264;-70
2022/12/25 07:32:00;;;;;;;20.10;9.43;;;;;;;8.59;92.30;100490.44;5049290;28;20264;-70
2022/12/25 07:34:27;;;;;;;17.13;9.50;;;;;;;8.58;92.43;100471.06;5051922;28;20222;-67
2022/12/25 07:36:53;;;;;;;17.77;9.37;;;;;;;8.55;92.18;100455.16;5051056;28;20203;-71
2022/12/25 07:39:20;;;;;;;18.47;10.47;;;;;;;8.65;92.30;100478.25;5046664;28;20223;-70
2022/12/25 07:41:46;;;;;;;22.97;9.57;;;;;;;8.54;92.29;100461.28;5047659;28;20273;-71
2022/12/25 07:44:12;;;;;;;16.50;9.73;;;;;;;8.63;92.55;100482.59;5049310;28;20212;-70
2022/12/25 07:46:39;;;;;;;15.17;10.27;;;;;;;8.71;91.92;100472.22;5046962;28;20211;-70
2022/12/25 07:49:05;;;;;;;19.03;9.57;;;;;;;8.66;91.73;100481.78;5048128;28;20202;-70
2022/12/25 07:51:32;;;;;;;20.13;9.73;;;;;;;8.71;91.45;100470.47;5050107;28;20210;-70
2022/12/25 07:53:58;;;;;;;18.33;9.40;;;;;;;8.82;91.09;100485.69;5047493;28;20226;-73
2022/12/25 07:56:24;;;;;;;14.70;9.03;;;;;;;8.72;91.49;100472.25;5049161;28;20318;-70
2022/12/25 07:58:51;;;;;;;18.80;10.43;;;;;;;8.77;91.83;100490.81;5048403;28;20746;-70
2022/12/25 08:01:21;;;;;;;19.60;9.83;;;;;;;8.78;91.58;100498.78;5048430;28;20198;-76
2022/12/25 08:04:07;;;;;;;14.77;8.57;;;;;;;8.84;91.78;100476.03;5044652;28;20228;-71
2022/12/25 08:06:34;;;;;;;27.77;14.63;;;;;;;9.00;90.46;100463.19;5047759;28;20199;-70
2022/12/25 08:09:14;;;;;;;16.60;9.30;;;;;;;9.07;90.00;100443.06;5047757;28;20217;-71
2022/12/25 08:11:45;;;;;;;18.53;8.50;;;;;;;9.10;89.86;100440.47;5046039;28;20200;-71
2022/12/25 08:14:12;;;;;;;16.93;9.77;;;;;;;9.02;90.08;100421.84;5045723;28;20223;-70
2022/12/25 08:16:40;;;;;;;15.60;9.00;;;;;;;9.00;90.22;100422.66;5047462;28;20198;-73
2022/12/25 08:19:08;;;;;;;15.77;9.00;;;;;;;9.02;89.94;100419.19;5048457;28;20304;-72
2022/12/25 08:21:34;;;;;;;17.27;9.00;;;;;;;9.06;89.82;100431.59;5046248;28;20590;-72
2022/12/25 08:24:01;;;;;;;16.87;9.20;;;;;;;9.01;89.74;100448.22;5046272;28;20225;-71
2022/12/25 08:26:28;;;;;;;17.83;9.13;;;;;;;8.89;89.97;100448.88;5047506;28;20228;-71
2022/12/25 08:28:54;;;;;;;16.47;8.17;;;;;;;8.91;90.59;100463.00;5048025;28;20682;-71
2022/12/25 08:31:24;;;;;;;15.00;8.23;;;;;;;8.89;91.01;100469.09;5049403;28;20227;-71
2022/12/25 08:33:52;;;;;;;16.70;8.33;;;;;;;8.84;91.21;100453.16;5046270;28;20746;-71
2022/12/25 08:36:19;;;;;;;15.60;7.70;;;;;;;8.77;91.51;100444.19;5048178;28;20199;-71
2022/12/25 08:38:46;;;;;;;16.60;9.40;;;;;;;8.75;91.33;100432.69;5049464;28;20282;-72
2022/12/25 08:41:16;;;;;;;14.67;7.33;;;;;;;8.89;90.76;100447.97;5047725;28;20201;-71
2022/12/25 08:43:42;;;;;;;12.23;7.67;;;;;;;8.89;90.86;100443.56;5046280;28;20227;-71
2022/12/25 08:46:09;;;;;;;13.03;7.80;;;;;;;8.90;90.64;100433.91;5037908;28;20672;-69
2022/12/25 08:48:36;;;;;;;14.87;7.60;;;;;;;8.98;90.01;100450.78;5046013;28;20208;-71
2022/12/25 08:51:03;;;;;;;14.43;7.53;;;;;;;9.03;90.11;100457.94;5047709;28;20213;-71
2022/12/25 08:53:30;;;;;;;11.73;7.23;;;;;;;8.97;90.11;100452.53;5044993;28;20227;-71
2022/12/25 08:56:02;;;;;;;13.60;7.50;;;;;;;9.08;90.00;100465.97;5046898;28;20218;-71
2022/12/25 08:58:29;;;;;;;14.80;7.77;;;;;;;9.02;90.13;100466.72;5049196;28;20236;-71
2022/12/25 09:00:55;;;;;;;15.40;7.07;;;;;;;8.97;90.42;100456.94;5047650;28;20303;-71
2022/12/25 09:03:22;;;;;;;16.67;7.23;;;;;;;8.97;90.59;100460.47;5043489;28;20235;-70
2022/12/25 09:05:50;;;;;;;14.47;7.00;;;;;;;8.96;90.56;100463.09;5038868;28;20269;-70
2022/12/25 09:08:17;;;;;;;21.47;10.53;;;;;;;8.93;90.88;100445.41;5043687;28;20728;-71
2022/12/25 09:10:43;;;;;;;28.87;16.23;;;;;;;9.09;90.04;100442.22;5046786;28;20205;-70
2022/12/25 09:13:10;;;;;;;28.07;15.47;;;;;;;9.25;89.77;100458.41;5059829;22;20247;-67
2022/12/25 09:15:37;;;;;;;24.77;14.80;;;;;;;9.19;89.74;100464.44;5046838;28;20240;-68
2022/12/25 09:18:04;;;;;;;17.67;10.30;;;;;;;9.29;89.64;100455.84;5048604;28;20207;-67
2022/12/25 09:20:31;;;;;;;15.10;8.13;;;;;;;9.27;89.31;100452.28;5046734;28;20229;-66
2022/12/25 09:22:58;;;;;;;17.90;8.00;;;;;;;9.32;88.98;100452.38;5044808;28;20241;-67
2022/12/25 09:25:24;;;;;;;14.47;6.73;;;;;;;9.37;88.75;100448.06;5048417;28;20200;-66
2022/12/25 09:27:50;;;;;;;18.43;9.37;;;;;;;9.36;88.89;100459.50;5047026;28;20249;-65
2022/12/25 09:30:17;;;;;;;33.33;17.13;;;;;;;9.49;88.45;100450.91;5046411;28;20569;-67
2022/12/25 09:32:43;;;;;;;35.97;17.07;;;;;;;9.48;88.20;100448.25;5046806;28;20248;-68
2022/12/25 09:35:09;;;;;;;31.60;15.47;;;;;;;9.51;87.99;100443.91;5049954;28;20641;-68
2022/12/25 09:37:36;;;;;;;20.37;11.87;;;;;;;9.47;88.32;100441.19;5040208;28;20204;-67
2022/12/25 09:40:03;;;;;;;17.23;10.33;;;;;;;9.50;88.77;100439.47;5047209;28;20278;-67
2022/12/25 09:42:31;;;;;;;18.70;7.80;;;;;;;9.57;88.56;100438.72;5045556;28;20654;-66
2022/12/25 09:45:02;;;;;;;14.90;7.70;;;;;;;9.67;87.97;100434.53;5048383;28;20204;-67
2022/12/25 09:47:32;;;;;;;11.07;6.60;;;;;;;9.63;87.81;100428.28;5046088;28;20769;-65
2022/12/25 09:50:09;;;;;;;14.23;6.63;;;;;;;9.72;87.66;100419.63;5040083;28;20200;-66
2022/12/25 09:52:53;;;;;;;14.07;6.57;;;;;;;9.95;86.83;100423.53;5042064;28;20672;-68
2022/12/25 09:55:25;;;;;;;12.67;6.50;;;;;;;10.08;86.40;100397.28;5043646;28;20638;-65
2022/12/25 09:57:55;;;;;;;10.47;6.37;;;;;;;10.22;85.26;100374.59;5041474;28;20197;-66
2022/12/25 10:00:27;;;;;;;13.53;6.40;;;;;;;10.26;85.33;100369.34;5046179;28;20225;-68
2022/12/25 10:03:15;;;;;;;14.07;7.60;;;;;;;10.35;84.86;100376.53;5047326;28;20253;-65
2022/12/25 10:06:08;;;;;;;17.90;8.73;;;;;;;10.34;84.77;100373.00;5047653;28;20662;-67
2022/12/25 10:08:56;;;;;;;19.47;7.60;;;;;;;10.31;85.11;100394.13;5045656;28;20258;-66
2022/12/25 10:11:41;;;;;;;12.23;6.17;;;;;;;10.41;85.66;100391.63;5044103;28;20313;-71
2022/12/25 10:14:26;;;;;;;13.23;7.03;;;;;;;10.52;85.67;100401.50;5043701;28;20283;-66
2022/12/25 10:17:10;;;;;;;12.80;6.43;;;;;;;10.77;85.72;100408.00;5042535;28;20236;-66
2022/12/25 10:19:59;;;;;;;11.47;5.97;;;;;;;10.98;82.93;100407.38;5048607;28;20221;-68
2022/12/25 10:22:33;;;;;;;9.60;5.93;;;;;;;11.15;82.13;100412.88;5049100;28;20294;-66
2022/12/25 10:25:02;;;;;;;13.57;6.03;;;;;;;11.23;81.46;100408.56;5048663;28;20284;-66
2022/12/25 10:27:39;;;;;;;11.57;6.00;;;;;;;11.34;80.96;100390.13;5043719;28;20228;-66
2022/12/25 10:30:18;;;;;;;8.90;5.57;;;;;;;11.35;80.60;100397.19;5048430;28;20197;-71
2022/12/25 10:32:45;;;;;;;10.87;5.17;;;;;;;11.21;80.93;100402.34;5042467;28;20308;-69
2022/12/25 10:35:14;;;;;;;10.23;5.43;;;;;;;11.03;80.79;100402.13;5044340;28;20204;-69
2022/12/25 10:37:42;;;;;;;13.87;6.57;;;;;;;11.04;80.99;100412.75;5044350;28;20212;-68
2022/12/25 10:40:27;;;;;;;15.20;6.77;;;;;;;10.96;80.99;100398.53;5047067;28;20233;-68
2022/12/25 10:43:03;;;;;;;16.93;8.83;;;;;;;11.03;81.33;100397.72;5041843;28;20225;-68
2022/12/25 10:45:29;;;;;;;13.00;6.30;;;;;;;11.02;80.49;100390.66;5046363;28;20204;-68
2022/12/25 10:48:05;;;;;;;11.03;6.37;;;;;;;11.33;80.05;100367.13;5045181;28;20209;-68
2022/12/25 10:50:33;;;;;;;10.23;5.40;;;;;;;11.63;78.63;100380.69;5041160;28;20190;-69
2022/12/25 10:53:04;;;;;;;10.23;4.93;;;;;;;11.80;78.32;100373.78;5042787;28;20229;-68
2022/12/25 10:55:31;;;;;;;8.77;5.30;;;;;;;11.76;77.70;100377.25;5045151;28;20201;-71
2022/12/25 10:58:00;;;;;;;10.63;5.10;;;;;;;11.77;78.19;100373.72;5043807;28;20200;-75
2022/12/25 11:00:30;;;;;;;13.13;5.33;;;;;;;11.82;77.87;100358.75;5045012;28;20218;-74
2022/12/25 11:02:57;;;;;;;9.07;4.77;;;;;;;11.70;77.99;100368.34;5045720;28;20726;-74
2022/12/25 11:05:30;;;;;;;9.57;4.77;;;;;;;11.74;78.40;100363.09;5045510;28;20195;-73
2022/12/25 11:08:01;;;;;;;8.73;5.27;;;;;;;11.79;78.61;100364.03;5043352;28;20209;-74
2022/12/25 11:10:35;;;;;;;8.07;4.77;;;;;;;11.82;77.76;100361.41;5045285;28;20197;-76
2022/12/25 11:13:06;;;;;;;8.23;4.70;;;;;;;11.70;78.42;100357.75;5047340;28;20237;-74
2022/12/25 11:16:11;;;;;;;10.37;5.13;;;;;;;11.63;78.40;100371.84;5046818;28;20586;-73
2022/12/25 11:18:47;;;;;;;9.40;4.93;;;;;;;11.51;79.06;100364.63;5043631;28;20658;-68
2022/12/25 11:21:22;;;;;;;8.33;4.37;;;;;;;11.61;78.62;100369.16;5045200;28;20718;-67
2022/12/25 11:23:55;;;;;;;8.57;4.63;;;;;;;11.57;78.56;100356.72;5044448;28;20226;-69
2022/12/25 11:26:21;;;;;;;9.00;5.10;;;;;;;11.55;78.42;100354.06;5043132;28;20198;-68
2022/12/25 11:28:50;;;;;;;9.57;5.47;;;;;;;11.52;78.66;100337.22;5044552;28;20205;-68
2022/12/25 11:31:19;;;;;;;9.97;5.10;;;;;;;11.68;78.74;100356.84;5047116;28;20195;-71
2022/12/25 11:33:58;;;;;;;10.73;5.53;;;;;;;11.56;78.95;100345.22;5040458;28;20404;-71
2022/12/25 11:36:50;;;;;;;8.17;4.60;;;;;;;11.42;79.41;100330.09;5041884;28;20201;-71
2022/12/25 11:39:26;;;;;;;7.53;4.70;;;;;;;11.34;79.46;100318.53;5043237;28;20218;-68
2022/12/25 11:42:04;;;;;;;9.90;5.07;;;;;;;11.28;79.75;100314.94;5046658;28;20252;-72
2022/12/25 11:44:37;;;;;;;7.90;5.30;;;;;;;11.23;80.34;100318.44;5047406;28;20265;-75
2022/12/25 11:47:18;;;;;;;10.67;5.30;;;;;;;11.27;80.08;100291.97;5045098;28;20809;-71
2022/12/25 11:49:53;;;;;;;10.37;5.53;;;;;;;11.55;79.24;100276.25;5043611;28;20198;-66
2022/12/25 11:52:32;;;;;;;10.00;5.30;;;;;;;11.52;78.91;100263.88;5042759;28;20229;-69
2022/12/25 11:55:37;;;;;;;10.83;5.20;;;;;;;11.63;78.11;100241.84;5045251;28;20281;-66
2022/12/25 11:58:14;;;;;;;10.37;6.27;;;;;;;11.50;79.40;100244.41;5047250;28;20525;-65
2022/12/25 12:00:45;;;;;;;12.67;7.33;;;;;;;11.57;78.50;100240.91;5044013;28;20230;-66
2022/12/25 12:03:26;;;;;;;10.23;5.73;;;;;;;11.60;78.80;100262.16;5042898;28;20226;-71
2022/12/25 12:05:58;;;;;;;13.27;6.37;;;;;;;11.60;78.47;100264.81;5045515;28;20293;-66
2022/12/25 12:08:25;;;;;;;7.60;4.60;;;;;;;11.54;78.19;100270.06;5047321;28;20617;-74
2022/12/25 12:11:17;;;;;;;7.87;4.53;;;;;;;11.61;77.30;100256.00;5046023;28;20203;-70
2022/12/25 12:13:58;;;;;;;12.53;8.80;;;;;;;11.67;77.98;100246.31;5038833;28;20229;-69
2022/12/25 12:16:25;;;;;;;9.50;4.93;;;;;;;11.73;77.95;100246.34;5046504;28;20198;-70
2022/12/25 12:18:52;;;;;;;9.17;5.97;;;;;;;11.76;77.94;100244.59;5048190;28;20236;-70
2022/12/25 12:21:25;;;;;;;9.57;6.40;;;;;;;11.72;77.29;100240.16;5044749;28;20309;-68
2022/12/25 12:24:02;;;;;;;8.23;5.57;;;;;;;11.70;77.66;100248.97;5047263;28;20813;-70
2022/12/25 12:26:33;;;;;;;7.90;5.77;;;;;;;11.72;77.39;100240.16;5048513;28;20621;-70
2022/12/25 12:29:03;;;;;;;7.07;4.60;;;;;;;11.73;77.64;100238.38;5048589;28;20210;-75
2022/12/25 12:31:45;;;;;;;8.50;4.60;;;;;;;11.82;78.27;100227.84;5048547;28;20256;-75
2022/12/25 12:34:23;;;;;;;9.37;5.00;;;;;;;11.83;78.12;100211.94;5048325;28;20222;-73
2022/12/25 12:37:03;;;;;;;7.73;4.67;;;;;;;11.85;77.94;100228.75;5047369;28;20213;-76
2022/12/25 12:39:35;;;;;;;7.30;4.60;;;;;;;11.96;77.81;100235.88;5048171;28;20226;-74
2022/12/25 12:42:14;;;;;;;7.00;4.63;;;;;;;11.91;77.65;100225.25;5046368;28;20814;-74
2022/12/25 12:44:41;;;;;;;8.47;4.77;;;;;;;11.95;77.43;100228.78;5046210;28;20213;-75
2022/12/25 12:47:28;;;;;;;8.73;4.70;;;;;;;11.88;77.84;100236.72;5048594;28;20219;-74
2022/12/25 12:49:58;;;;;;;8.13;4.73;;;;;;;11.92;77.83;100232.31;5045507;28;20263;-76
2022/12/25 12:52:37;;;;;;;7.87;4.50;;;;;;;12.06;77.63;100221.78;5047725;28;20202;-77
2022/12/25 12:55:05;;;;;;;7.00;4.80;;;;;;;12.17;77.14;100230.69;5047649;28;20214;-72
2022/12/25 12:57:38;;;;;;;9.33;4.67;;;;;;;12.21;76.35;100212.13;5048202;28;20223;-67
2022/12/25 13:00:16;;;;;;;9.00;4.90;;;;;;;12.33;76.44;100221.00;5045625;28;20219;-68
2022/12/25 13:03:18;;;;;;;9.77;4.53;;;;;;;12.42;75.81;100231.69;5046266;28;20276;-75
2022/12/25 13:05:51;;;;;;;8.20;4.47;;;;;;;12.49;75.91;100226.38;5045490;28;20199;-71
2022/12/25 13:08:24;;;;;;;6.60;4.30;;;;;;;12.53;76.04;100224.63;5044315;28;20729;-71
2022/12/25 13:11:03;;;;;;;7.60;4.73;;;;;;;12.41;75.90;100225.47;5046687;28;20190;-75
2022/12/25 13:13:35;;;;;;;7.90;4.80;;;;;;;12.48;76.02;100235.25;5048435;28;20223;-74
2022/12/25 13:16:02;;;;;;;6.07;4.33;;;;;;;12.52;75.56;100225.50;5046500;28;20222;-77
2022/12/25 13:18:29;;;;;;;6.50;4.40;;;;;;;12.58;75.92;100229.94;5042867;28;20290;-77
2022/12/25 13:20:58;;;;;;;8.00;5.00;;;;;;;12.57;75.42;100221.09;5044743;28;20260;-77